sensor_id;sensor_type;location;lat;lon;timestamp;temperature;humidity
31837;DHT22;18401;49.344;6.240;2024-03-02T00:00:14;7.40;99.90
31837;DHT22;18401;49.344;6.240;2024-03-02T00:02:44;7.40;99.90
31837;DHT22;18401;49.344;6.240;2024-03-02T00:05:11;7.40;99.90
31837;DHT22;18401;49.344;6.240;2024-03-02T00:07:58;7.50;99.90
31837;DHT22;18401;49.344;6.240;2024-03-02T00:10:39;7.50;99.90
31837;DHT22;18401;49.344;6.240;2024-03-02T00:13:06;7.40;99.90
31837;DHT22;18401;49.344;6.240;2024-03-02T00:15:46;7.40;99.90
31837;DHT22;18401;49.344;6.240;2024-03-02T00:18:13;7.40;99.90
31837;DHT22;18401;49.344;6.240;2024-03-02T00:20:40;7.40;99.90
31837;DHT22;18401;49.344;6.240;2024-03-02T00:23:07;7.30;99.90
31837;DHT22;18401;49.344;6.240;2024-03-02T00:25:52;7.30;99.90
31837;DHT22;18401;49.344;6.240;2024-03-02T00:31:06;7.40;99.90
31837;DHT22;18401;49.344;6.240;2024-03-02T00:33:43;7.30;99.90
31837;DHT22;18401;49.344;6.240;2024-03-02T00:36:11;7.20;99.90
31837;DHT22;18401;49.344;6.240;2024-03-02T00:38:48;7.20;99.90
31837;DHT22;18401;49.344;6.240;2024-03-02T00:41:32;7.30;99.90
31837;DHT22;18401;49.344;6.240;2024-03-02T00:44:05;7.10;99.90
31837;DHT22;18401;49.344;6.240;2024-03-02T00:46:35;7.10;99.90
31837;DHT22;18401;49.344;6.240;2024-03-02T00:49:03;7.30;99.90
31837;DHT22;18401;49.344;6.240;2024-03-02T00:51:30;7.10;99.90
31837;DHT22;18401;49.344;6.240;2024-03-02T00:53:59;7.10;99.90
31837;DHT22;18401;49.344;6.240;2024-03-02T00:56:25;7.10;99.90
31837;DHT22;18401;49.344;6.240;2024-03-02T00:58:51;7.20;99.90
31837;DHT22;18401;49.344;6.240;2024-03-02T01:01:17;7.20;99.90
31837;DHT22;18401;49.344;6.240;2024-03-02T01:03:45;7.30;99.90
31837;DHT22;18401;49.344;6.240;2024-03-02T01:06:11;7.20;99.90
31837;DHT22;18401;49.344;6.240;2024-03-02T01:08:37;7.30;99.90
31837;DHT22;18401;49.344;6.240;2024-03-02T01:11:04;7.30;99.90
31837;DHT22;18401;49.344;6.240;2024-03-02T01:13:30;7.40;99.90
31837;DHT22;18401;49.344;6.240;2024-03-02T01:15:56;7.40;99.90
31837;DHT22;18401;49.344;6.240;2024-03-02T01:18:22;7.40;99.90
31837;DHT22;18401;49.344;6.240;2024-03-02T01:20:49;7.50;99.90
31837;DHT22;18401;49.344;6.240;2024-03-02T01:23:20;7.60;99.90
31837;DHT22;18401;49.344;6.240;2024-03-02T01:25:49;7.60;99.90
31837;DHT22;18401;49.344;6.240;2024-03-02T01:28:15;7.60;99.90
31837;DHT22;18401;49.344;6.240;2024-03-02T01:30:41;7.50;99.90
31837;DHT22;18401;49.344;6.240;2024-03-02T01:33:07;7.50;99.90
31837;DHT22;18401;49.344;6.240;2024-03-02T01:35:33;7.60;99.90
31837;DHT22;18401;49.344;6.240;2024-03-02T01:38:00;7.50;99.90
31837;DHT22;18401;49.344;6.240;2024-03-02T01:40:26;7.60;99.90
31837;DHT22;18401;49.344;6.240;2024-03-02T01:42:55;7.80;99.90
31837;DHT22;18401;49.344;6.240;2024-03-02T01:45:21;7.80;99.90
31837;DHT22;18401;49.344;6.240;2024-03-02T01:47:47;7.90;99.90
31837;DHT22;18401;49.344;6.240;2024-03-02T01:50:12;7.80;99.90
31837;DHT22;18401;49.344;6.240;2024-03-02T01:52:38;7.70;99.90
31837;DHT22;18401;49.344;6.240;2024-03-02T01:55:05;7.70;99.90
31837;DHT22;18401;49.344;6.240;2024-03-02T01:57:32;7.80;99.90
31837;DHT22;18401;49.344;6.240;2024-03-02T01:59:58;7.70;99.90
31837;DHT22;18401;49.344;6.240;2024-03-02T02:02:24;7.60;99.90
31837;DHT22;18401;49.344;6.240;2024-03-02T02:04:49;7.60;99.90
31837;DHT22;18401;49.344;6.240;2024-03-02T02:07:15;7.70;99.90
31837;DHT22;18401;49.344;6.240;2024-03-02T02:09:44;7.60;99.90
31837;DHT22;18401;49.344;6.240;2024-03-02T02:12:09;7.50;99.90
31837;DHT22;18401;49.344;6.240;2024-03-02T02:14:36;7.40;99.90
31837;DHT22;18401;49.344;6.240;2024-03-02T02:17:01;7.30;99.90
31837;DHT22;18401;49.344;6.240;2024-03-02T02:19:27;7.10;1.00
31837;DHT22;18401;49.344;6.240;2024-03-02T02:21:53;7.10;1.00
31837;DHT22;18401;49.344;6.240;2024-03-02T02:24:18;7.00;1.00
31837;DHT22;18401;49.344;6.240;2024-03-02T02:26:44;6.90;1.00
31837;DHT22;18401;49.344;6.240;2024-03-02T02:29:10;7.10;1.00
31837;DHT22;18401;49.344;6.240;2024-03-02T02:31:39;7.00;1.00
31837;DHT22;18401;49.344;6.240;2024-03-02T02:34:05;7.00;23.40
31837;DHT22;18401;49.344;6.240;2024-03-02T02:36:34;6.70;95.90
31837;DHT22;18401;49.344;6.240;2024-03-02T02:39:05;6.70;99.90
31837;DHT22;18401;49.344;6.240;2024-03-02T02:41:32;6.70;99.90
31837;DHT22;18401;49.344;6.240;2024-03-02T02:43:58;6.80;99.90
31837;DHT22;18401;49.344;6.240;2024-03-02T02:46:24;6.70;99.90
31837;DHT22;18401;49.344;6.240;2024-03-02T02:48:49;6.70;99.90
31837;DHT22;18401;49.344;6.240;2024-03-02T02:51:17;6.80;95.50
31837;DHT22;18401;49.344;6.240;2024-03-02T02:53:43;6.90;63.30
31837;DHT22;18401;49.344;6.240;2024-03-02T02:56:09;6.80;99.90
31837;DHT22;18401;49.344;6.240;2024-03-02T02:58:34;6.70;99.90
31837;DHT22;18401;49.344;6.240;2024-03-02T03:01:01;6.80;99.90
31837;DHT22;18401;49.344;6.240;2024-03-02T03:03:27;6.80;99.90
31837;DHT22;18401;49.344;6.240;2024-03-02T03:05:52;6.80;99.90
31837;DHT22;18401;49.344;6.240;2024-03-02T03:08:18;6.70;99.90
31837;DHT22;18401;49.344;6.240;2024-03-02T03:10:44;6.70;99.90
31837;DHT22;18401;49.344;6.240;2024-03-02T03:13:10;6.80;99.90
31837;DHT22;18401;49.344;6.240;2024-03-02T03:15:36;6.80;99.90
31837;DHT22;18401;49.344;6.240;2024-03-02T03:18:02;6.80;99.90
31837;DHT22;18401;49.344;6.240;2024-03-02T03:20:29;6.70;99.90
31837;DHT22;18401;49.344;6.240;2024-03-02T03:22:55;6.70;99.90
31837;DHT22;18401;49.344;6.240;2024-03-02T03:25:21;6.70;99.90
31837;DHT22;18401;49.344;6.240;2024-03-02T03:27:47;6.70;99.90
31837;DHT22;18401;49.344;6.240;2024-03-02T03:30:12;6.70;99.90
31837;DHT22;18401;49.344;6.240;2024-03-02T03:32:38;6.80;99.90
31837;DHT22;18401;49.344;6.240;2024-03-02T03:35:04;6.70;99.90
31837;DHT22;18401;49.344;6.240;2024-03-02T03:37:30;6.80;99.90
31837;DHT22;18401;49.344;6.240;2024-03-02T03:39:59;6.70;99.90
31837;DHT22;18401;49.344;6.240;2024-03-02T03:42:26;6.80;99.90
31837;DHT22;18401;49.344;6.240;2024-03-02T03:44:52;6.80;99.90
31837;DHT22;18401;49.344;6.240;2024-03-02T03:47:17;6.80;1.00
31837;DHT22;18401;49.344;6.240;2024-03-02T03:49:43;6.70;61.80
31837;DHT22;18401;49.344;6.240;2024-03-02T03:52:09;6.60;22.90
31837;DHT22;18401;49.344;6.240;2024-03-02T03:54:35;6.70;13.70
31837;DHT22;18401;49.344;6.240;2024-03-02T03:57:02;6.80;60.00
31837;DHT22;18401;49.344;6.240;2024-03-02T03:59:28;6.70;99.90
31837;DHT22;18401;49.344;6.240;2024-03-02T04:01:54;6.70;99.90
31837;DHT22;18401;49.344;6.240;2024-03-02T04:04:19;6.70;99.90
31837;DHT22;18401;49.344;6.240;2024-03-02T04:06:45;6.70;99.90
31837;DHT22;18401;49.344;6.240;2024-03-02T04:09:11;6.70;99.90
31837;DHT22;18401;49.344;6.240;2024-03-02T04:11:36;6.70;99.90
31837;DHT22;18401;49.344;6.240;2024-03-02T04:14:02;6.60;99.90
31837;DHT22;18401;49.344;6.240;2024-03-02T04:16:28;6.70;99.90
31837;DHT22;18401;49.344;6.240;2024-03-02T04:18:54;6.70;99.90
31837;DHT22;18401;49.344;6.240;2024-03-02T04:21:20;6.60;99.90
31837;DHT22;18401;49.344;6.240;2024-03-02T04:23:45;6.70;99.90
31837;DHT22;18401;49.344;6.240;2024-03-02T04:26:11;6.70;99.90
31837;DHT22;18401;49.344;6.240;2024-03-02T04:28:37;6.70;99.90
31837;DHT22;18401;49.344;6.240;2024-03-02T04:31:03;6.60;99.90
31837;DHT22;18401;49.344;6.240;2024-03-02T04:33:29;6.80;99.90
31837;DHT22;18401;49.344;6.240;2024-03-02T04:35:54;6.60;99.90
31837;DHT22;18401;49.344;6.240;2024-03-02T04:38:20;6.60;99.90
31837;DHT22;18401;49.344;6.240;2024-03-02T04:40:46;6.60;99.90
31837;DHT22;18401;49.344;6.240;2024-03-02T04:43:11;6.50;99.90
31837;DHT22;18401;49.344;6.240;2024-03-02T04:45:40;6.50;99.90
31837;DHT22;18401;49.344;6.240;2024-03-02T04:48:06;6.50;99.90
31837;DHT22;18401;49.344;6.240;2024-03-02T04:50:32;6.50;99.90
31837;DHT22;18401;49.344;6.240;2024-03-02T04:52:58;6.60;99.90
31837;DHT22;18401;49.344;6.240;2024-03-02T04:55:24;6.60;99.90
31837;DHT22;18401;49.344;6.240;2024-03-02T04:57:52;6.60;99.90
31837;DHT22;18401;49.344;6.240;2024-03-02T05:00:20;6.60;99.90
31837;DHT22;18401;49.344;6.240;2024-03-02T05:02:46;6.60;99.90
31837;DHT22;18401;49.344;6.240;2024-03-02T05:05:11;6.60;99.90
31837;DHT22;18401;49.344;6.240;2024-03-02T05:07:37;6.50;99.90
31837;DHT22;18401;49.344;6.240;2024-03-02T05:10:03;6.60;99.90
31837;DHT22;18401;49.344;6.240;2024-03-02T05:12:28;6.60;99.90
31837;DHT22;18401;49.344;6.240;2024-03-02T05:15:10;6.60;99.90
31837;DHT22;18401;49.344;6.240;2024-03-02T05:17:39;6.60;99.90
31837;DHT22;18401;49.344;6.240;2024-03-02T05:20:06;6.50;99.90
31837;DHT22;18401;49.344;6.240;2024-03-02T05:22:36;6.50;99.90
31837;DHT22;18401;49.344;6.240;2024-03-02T05:25:02;6.40;99.90
31837;DHT22;18401;49.344;6.240;2024-03-02T05:27:28;6.50;99.90
31837;DHT22;18401;49.344;6.240;2024-03-02T05:29:54;6.50;99.90
31837;DHT22;18401;49.344;6.240;2024-03-02T05:32:19;6.50;99.90
31837;DHT22;18401;49.344;6.240;2024-03-02T05:34:45;6.50;99.90
31837;DHT22;18401;49.344;6.240;2024-03-02T05:37:11;6.50;1.00
31837;DHT22;18401;49.344;6.240;2024-03-02T05:39:36;6.50;1.00
31837;DHT22;18401;49.344;6.240;2024-03-02T05:42:02;6.50;1.00
31837;DHT22;18401;49.344;6.240;2024-03-02T05:44:28;6.40;40.80
31837;DHT22;18401;49.344;6.240;2024-03-02T05:46:55;6.40;88.30
31837;DHT22;18401;49.344;6.240;2024-03-02T05:49:21;6.40;99.90
31837;DHT22;18401;49.344;6.240;2024-03-02T05:51:46;6.40;99.90
31837;DHT22;18401;49.344;6.240;2024-03-02T05:54:12;6.50;99.90
31837;DHT22;18401;49.344;6.240;2024-03-02T05:56:38;6.50;95.90
31837;DHT22;18401;49.344;6.240;2024-03-02T05:59:04;6.50;99.90
31837;DHT22;18401;49.344;6.240;2024-03-02T06:01:45;6.40;93.40
31837;DHT22;18401;49.344;6.240;2024-03-02T06:04:12;6.40;90.50
31837;DHT22;18401;49.344;6.240;2024-03-02T06:06:38;6.40;82.50
31837;DHT22;18401;49.344;6.240;2024-03-02T06:09:05;6.40;82.10
31837;DHT22;18401;49.344;6.240;2024-03-02T06:11:36;6.40;99.90
31837;DHT22;18401;49.344;6.240;2024-03-02T06:14:02;6.40;99.90
31837;DHT22;18401;49.344;6.240;2024-03-02T06:16:28;6.50;57.20
31837;DHT22;18401;49.344;6.240;2024-03-02T06:18:53;6.50;42.60
31837;DHT22;18401;49.344;6.240;2024-03-02T06:21:19;6.50;56.80
31837;DHT22;18401;49.344;6.240;2024-03-02T06:23:45;6.50;72.50
31837;DHT22;18401;49.344;6.240;2024-03-02T06:26:11;6.50;91.60
31837;DHT22;18401;49.344;6.240;2024-03-02T06:28:37;6.50;87.00
31837;DHT22;18401;49.344;6.240;2024-03-02T06:31:04;6.50;98.90
31837;DHT22;18401;49.344;6.240;2024-03-02T06:33:29;6.60;96.50
31837;DHT22;18401;49.344;6.240;2024-03-02T06:35:55;6.70;54.10
31837;DHT22;18401;49.344;6.240;2024-03-02T06:38:21;6.70;32.10
31837;DHT22;18401;49.344;6.240;2024-03-02T06:40:46;6.70;34.40
31837;DHT22;18401;49.344;6.240;2024-03-02T06:43:12;6.70;75.40
31837;DHT22;18401;49.344;6.240;2024-03-02T06:45:38;6.70;84.10
31837;DHT22;18401;49.344;6.240;2024-03-02T06:48:03;6.80;99.90
31837;DHT22;18401;49.344;6.240;2024-03-02T06:50:29;6.70;99.90
31837;DHT22;18401;49.344;6.240;2024-03-02T06:52:55;6.70;99.90
31837;DHT22;18401;49.344;6.240;2024-03-02T06:55:23;6.70;99.90
31837;DHT22;18401;49.344;6.240;2024-03-02T06:57:50;6.70;99.90
31837;DHT22;18401;49.344;6.240;2024-03-02T07:00:16;6.80;99.90
31837;DHT22;18401;49.344;6.240;2024-03-02T07:02:43;6.80;99.90
31837;DHT22;18401;49.344;6.240;2024-03-02T07:05:10;6.90;99.90
31837;DHT22;18401;49.344;6.240;2024-03-02T07:07:36;6.90;99.90
31837;DHT22;18401;49.344;6.240;2024-03-02T07:10:03;6.90;99.90
31837;DHT22;18401;49.344;6.240;2024-03-02T07:12:29;7.00;99.90
31837;DHT22;18401;49.344;6.240;2024-03-02T07:14:56;7.00;99.90
31837;DHT22;18401;49.344;6.240;2024-03-02T07:17:44;7.00;99.90
31837;DHT22;18401;49.344;6.240;2024-03-02T07:20:10;7.10;80.30
31837;DHT22;18401;49.344;6.240;2024-03-02T07:22:37;7.20;99.90
31837;DHT22;18401;49.344;6.240;2024-03-02T07:25:03;7.20;95.50
31837;DHT22;18401;49.344;6.240;2024-03-02T07:27:30;7.20;99.90
31837;DHT22;18401;49.344;6.240;2024-03-02T07:29:57;7.20;99.90
31837;DHT22;18401;49.344;6.240;2024-03-02T07:32:22;7.30;99.90
31837;DHT22;18401;49.344;6.240;2024-03-02T07:34:48;7.30;99.90
31837;DHT22;18401;49.344;6.240;2024-03-02T07:37:14;7.30;99.90
31837;DHT22;18401;49.344;6.240;2024-03-02T07:39:39;7.30;99.90
31837;DHT22;18401;49.344;6.240;2024-03-02T07:42:05;7.30;99.90
31837;DHT22;18401;49.344;6.240;2024-03-02T07:44:31;7.30;60.80
31837;DHT22;18401;49.344;6.240;2024-03-02T07:46:57;7.40;63.60
31837;DHT22;18401;49.344;6.240;2024-03-02T07:49:22;7.40;1.00
31837;DHT22;18401;49.344;6.240;2024-03-02T07:51:48;7.60;28.80
31837;DHT22;18401;49.344;6.240;2024-03-02T07:54:14;7.60;1.00
31837;DHT22;18401;49.344;6.240;2024-03-02T07:56:39;7.60;99.90
31837;DHT22;18401;49.344;6.240;2024-03-02T07:59:05;7.70;99.90
31837;DHT22;18401;49.344;6.240;2024-03-02T08:01:32;7.70;99.90
31837;DHT22;18401;49.344;6.240;2024-03-02T08:03:59;7.60;99.90
31837;DHT22;18401;49.344;6.240;2024-03-02T08:06:26;7.70;99.90
31837;DHT22;18401;49.344;6.240;2024-03-02T08:08:57;7.70;99.90
31837;DHT22;18401;49.344;6.240;2024-03-02T08:11:23;7.70;99.90
31837;DHT22;18401;49.344;6.240;2024-03-02T08:13:49;7.70;99.90
31837;DHT22;18401;49.344;6.240;2024-03-02T08:16:15;7.80;28.70
31837;DHT22;18401;49.344;6.240;2024-03-02T08:18:42;7.80;1.00
31837;DHT22;18401;49.344;6.240;2024-03-02T08:21:07;7.90;16.70
31837;DHT22;18401;49.344;6.240;2024-03-02T08:23:34;8.00;1.00
31837;DHT22;18401;49.344;6.240;2024-03-02T08:25:59;7.90;1.00
31837;DHT22;18401;49.344;6.240;2024-03-02T08:28:25;8.00;1.00
31837;DHT22;18401;49.344;6.240;2024-03-02T08:30:51;8.10;99.90
31837;DHT22;18401;49.344;6.240;2024-03-02T08:33:16;8.30;99.90
31837;DHT22;18401;49.344;6.240;2024-03-02T08:35:42;8.20;99.90
31837;DHT22;18401;49.344;6.240;2024-03-02T08:38:08;8.20;99.90
31837;DHT22;18401;49.344;6.240;2024-03-02T08:40:34;8.00;1.00
31837;DHT22;18401;49.344;6.240;2024-03-02T08:42:59;8.00;5.80
31837;DHT22;18401;49.344;6.240;2024-03-02T08:45:25;8.10;8.90
31837;DHT22;18401;49.344;6.240;2024-03-02T08:47:51;8.20;8.40
31837;DHT22;18401;49.344;6.240;2024-03-02T08:50:17;8.20;1.00
31837;DHT22;18401;49.344;6.240;2024-03-02T08:52:42;8.50;21.60
31837;DHT22;18401;49.344;6.240;2024-03-02T08:55:08;8.50;1.00
31837;DHT22;18401;49.344;6.240;2024-03-02T08:57:35;8.80;99.90
31837;DHT22;18401;49.344;6.240;2024-03-02T09:00:00;9.00;99.90
31837;DHT22;18401;49.344;6.240;2024-03-02T09:02:27;9.00;99.90
31837;DHT22;18401;49.344;6.240;2024-03-02T09:04:52;9.10;1.00
31837;DHT22;18401;49.344;6.240;2024-03-02T09:07:18;9.20;99.90
31837;DHT22;18401;49.344;6.240;2024-03-02T09:09:44;10.00;1.00
31837;DHT22;18401;49.344;6.240;2024-03-02T09:12:09;10.30;99.90
31837;DHT22;18401;49.344;6.240;2024-03-02T09:14:36;10.30;99.90
31837;DHT22;18401;49.344;6.240;2024-03-02T09:17:02;10.90;99.90
31837;DHT22;18401;49.344;6.240;2024-03-02T09:19:29;10.40;99.90
31837;DHT22;18401;49.344;6.240;2024-03-02T09:21:54;9.90;99.90
31837;DHT22;18401;49.344;6.240;2024-03-02T09:24:21;10.10;99.90
31837;DHT22;18401;49.344;6.240;2024-03-02T09:26:47;10.10;99.90
31837;DHT22;18401;49.344;6.240;2024-03-02T09:29:12;10.10;99.90
31837;DHT22;18401;49.344;6.240;2024-03-02T09:31:42;10.20;99.90
31837;DHT22;18401;49.344;6.240;2024-03-02T09:34:08;10.10;99.90
31837;DHT22;18401;49.344;6.240;2024-03-02T09:36:33;10.20;99.90
31837;DHT22;18401;49.344;6.240;2024-03-02T09:38:59;10.10;99.90
31837;DHT22;18401;49.344;6.240;2024-03-02T09:41:25;10.00;99.90
31837;DHT22;18401;49.344;6.240;2024-03-02T09:43:51;9.30;99.90
31837;DHT22;18401;49.344;6.240;2024-03-02T09:46:17;9.50;99.90
31837;DHT22;18401;49.344;6.240;2024-03-02T09:48:44;9.60;99.90
31837;DHT22;18401;49.344;6.240;2024-03-02T09:51:11;10.10;99.90
31837;DHT22;18401;49.344;6.240;2024-03-02T09:53:37;10.90;99.90
31837;DHT22;18401;49.344;6.240;2024-03-02T09:56:03;11.30;91.60
31837;DHT22;18401;49.344;6.240;2024-03-02T09:58:30;11.00;74.00
31837;DHT22;18401;49.344;6.240;2024-03-02T10:00:56;10.70;99.90
31837;DHT22;18401;49.344;6.240;2024-03-02T10:03:23;10.80;99.90
31837;DHT22;18401;49.344;6.240;2024-03-02T10:05:50;10.60;99.90
31837;DHT22;18401;49.344;6.240;2024-03-02T10:08:15;10.50;99.90
31837;DHT22;18401;49.344;6.240;2024-03-02T10:10:41;10.40;99.90
31837;DHT22;18401;49.344;6.240;2024-03-02T10:13:12;10.40;99.90
31837;DHT22;18401;49.344;6.240;2024-03-02T10:15:40;10.30;99.90
31837;DHT22;18401;49.344;6.240;2024-03-02T10:18:12;10.30;99.90
31837;DHT22;18401;49.344;6.240;2024-03-02T10:20:39;10.40;93.80
31837;DHT22;18401;49.344;6.240;2024-03-02T10:23:13;10.50;92.60
31837;DHT22;18401;49.344;6.240;2024-03-02T10:25:39;10.50;96.10
31837;DHT22;18401;49.344;6.240;2024-03-02T10:28:05;10.40;99.40
31837;DHT22;18401;49.344;6.240;2024-03-02T10:30:32;10.40;61.20
31837;DHT22;18401;49.344;6.240;2024-03-02T10:32:58;10.50;25.90
31837;DHT22;18401;49.344;6.240;2024-03-02T10:35:24;10.40;2.70
31837;DHT22;18401;49.344;6.240;2024-03-02T10:37:52;10.50;26.70
31837;DHT22;18401;49.344;6.240;2024-03-02T10:40:18;10.60;1.00
31837;DHT22;18401;49.344;6.240;2024-03-02T10:42:47;10.70;12.30
31837;DHT22;18401;49.344;6.240;2024-03-02T10:45:15;10.60;1.00
31837;DHT22;18401;49.344;6.240;2024-03-02T10:47:43;10.70;1.00
31837;DHT22;18401;49.344;6.240;2024-03-02T10:50:09;10.50;99.90
31837;DHT22;18401;49.344;6.240;2024-03-02T10:52:35;10.70;99.90
31837;DHT22;18401;49.344;6.240;2024-03-02T10:55:01;10.80;99.90
31837;DHT22;18401;49.344;6.240;2024-03-02T10:57:33;11.00;1.00
31837;DHT22;18401;49.344;6.240;2024-03-02T11:00:03;11.00;99.90
31837;DHT22;18401;49.344;6.240;2024-03-02T11:02:31;11.10;99.90
31837;DHT22;18401;49.344;6.240;2024-03-02T11:04:59;11.20;99.90
31837;DHT22;18401;49.344;6.240;2024-03-02T11:07:27;11.40;99.90
31837;DHT22;18401;49.344;6.240;2024-03-02T11:10:01;11.40;99.90
31837;DHT22;18401;49.344;6.240;2024-03-02T11:12:38;11.60;99.90
31837;DHT22;18401;49.344;6.240;2024-03-02T11:15:10;11.30;99.90
31837;DHT22;18401;49.344;6.240;2024-03-02T11:17:39;11.40;99.90
31837;DHT22;18401;49.344;6.240;2024-03-02T11:20:09;11.40;99.90
31837;DHT22;18401;49.344;6.240;2024-03-02T11:22:36;11.80;99.90
31837;DHT22;18401;49.344;6.240;2024-03-02T11:25:02;12.00;99.90
31837;DHT22;18401;49.344;6.240;2024-03-02T11:33:09;12.20;99.90
31837;DHT22;18401;49.344;6.240;2024-03-02T11:35:36;12.50;99.90
31837;DHT22;18401;49.344;6.240;2024-03-02T11:38:03;12.90;99.90
31837;DHT22;18401;49.344;6.240;2024-03-02T11:40:30;13.00;99.90
31837;DHT22;18401;49.344;6.240;2024-03-02T11:42:57;13.50;99.90
31837;DHT22;18401;49.344;6.240;2024-03-02T11:45:25;14.20;79.70
31837;DHT22;18401;49.344;6.240;2024-03-02T11:47:53;13.70;95.00
31837;DHT22;18401;49.344;6.240;2024-03-02T11:50:34;13.90;68.70
31837;DHT22;18401;49.344;6.240;2024-03-02T11:53:05;14.50;68.40
31837;DHT22;18401;49.344;6.240;2024-03-02T11:55:37;15.10;6.30
31837;DHT22;18401;49.344;6.240;2024-03-02T11:58:06;14.90;11.40
31837;DHT22;18401;49.344;6.240;2024-03-02T12:00:32;15.20;4.40
31837;DHT22;18401;49.344;6.240;2024-03-02T12:03:02;15.40;4.00
31837;DHT22;18401;49.344;6.240;2024-03-02T12:05:30;15.20;1.00
31837;DHT22;18401;49.344;6.240;2024-03-02T12:08:00;15.90;1.00
31837;DHT22;18401;49.344;6.240;2024-03-02T12:10:27;15.40;1.00
31837;DHT22;18401;49.344;6.240;2024-03-02T12:13:00;15.90;1.00
31837;DHT22;18401;49.344;6.240;2024-03-02T12:15:27;15.80;1.00
31837;DHT22;18401;49.344;6.240;2024-03-02T12:17:55;16.20;1.00
31837;DHT22;18401;49.344;6.240;2024-03-02T12:20:21;15.90;1.00
31837;DHT22;18401;49.344;6.240;2024-03-02T12:22:55;15.00;1.00
31837;DHT22;18401;49.344;6.240;2024-03-02T12:25:21;14.40;8.30
31837;DHT22;18401;49.344;6.240;2024-03-02T12:27:49;14.60;33.40
31837;DHT22;18401;49.344;6.240;2024-03-02T12:30:19;14.40;1.00
31837;DHT22;18401;49.344;6.240;2024-03-02T12:32:45;14.10;99.90
31837;DHT22;18401;49.344;6.240;2024-03-02T12:35:12;14.30;50.40
31837;DHT22;18401;49.344;6.240;2024-03-02T12:37:44;14.70;87.60
31837;DHT22;18401;49.344;6.240;2024-03-02T12:40:11;14.30;51.30
31837;DHT22;18401;49.344;6.240;2024-03-02T12:42:38;13.70;64.80
31837;DHT22;18401;49.344;6.240;2024-03-02T12:45:04;13.60;77.00
31837;DHT22;18401;49.344;6.240;2024-03-02T12:47:30;13.70;59.20
31837;DHT22;18401;49.344;6.240;2024-03-02T12:49:56;13.40;91.90
31837;DHT22;18401;49.344;6.240;2024-03-02T12:52:22;13.30;91.70
31837;DHT22;18401;49.344;6.240;2024-03-02T12:54:48;13.30;99.90
31837;DHT22;18401;49.344;6.240;2024-03-02T12:57:21;13.40;99.90
31837;DHT22;18401;49.344;6.240;2024-03-02T12:59:47;13.20;92.30
31837;DHT22;18401;49.344;6.240;2024-03-02T13:02:19;13.00;99.90
31837;DHT22;18401;49.344;6.240;2024-03-02T13:04:52;12.90;99.90
31837;DHT22;18401;49.344;6.240;2024-03-02T13:07:20;12.90;99.90
31837;DHT22;18401;49.344;6.240;2024-03-02T13:09:48;12.90;99.90
31837;DHT22;18401;49.344;6.240;2024-03-02T13:12:15;12.90;96.00
31837;DHT22;18401;49.344;6.240;2024-03-02T13:14:42;12.90;99.70
31837;DHT22;18401;49.344;6.240;2024-03-02T13:17:08;13.30;99.90
31837;DHT22;18401;49.344;6.240;2024-03-02T13:19:34;13.40;99.90
31837;DHT22;18401;49.344;6.240;2024-03-02T13:22:02;13.70;99.90
31837;DHT22;18401;49.344;6.240;2024-03-02T13:24:29;13.80;99.90
31837;DHT22;18401;49.344;6.240;2024-03-02T13:26:55;13.60;99.90
31837;DHT22;18401;49.344;6.240;2024-03-02T13:29:23;13.60;99.90
31837;DHT22;18401;49.344;6.240;2024-03-02T13:31:49;13.40;99.90
31837;DHT22;18401;49.344;6.240;2024-03-02T13:34:15;13.70;99.90
31837;DHT22;18401;49.344;6.240;2024-03-02T13:36:41;13.50;99.90
31837;DHT22;18401;49.344;6.240;2024-03-02T13:39:07;14.50;99.90
31837;DHT22;18401;49.344;6.240;2024-03-02T13:41:35;15.10;25.80
31837;DHT22;18401;49.344;6.240;2024-03-02T13:44:01;14.20;70.00
31837;DHT22;18401;49.344;6.240;2024-03-02T13:46:27;14.00;94.80
31837;DHT22;18401;49.344;6.240;2024-03-02T13:48:54;14.20;81.40
31837;DHT22;18401;49.344;6.240;2024-03-02T13:51:20;13.70;99.90
31837;DHT22;18401;49.344;6.240;2024-03-02T13:53:45;13.80;99.90
31837;DHT22;18401;49.344;6.240;2024-03-02T13:56:11;13.30;56.40
31837;DHT22;18401;49.344;6.240;2024-03-02T13:58:37;13.20;62.70
31837;DHT22;18401;49.344;6.240;2024-03-02T14:01:04;13.20;84.80
31837;DHT22;18401;49.344;6.240;2024-03-02T14:03:30;13.00;99.90
31837;DHT22;18401;49.344;6.240;2024-03-02T14:05:56;13.00;83.70
31837;DHT22;18401;49.344;6.240;2024-03-02T14:08:22;13.00;85.60
31837;DHT22;18401;49.344;6.240;2024-03-02T14:10:48;12.90;87.10
31837;DHT22;18401;49.344;6.240;2024-03-02T14:13:14;13.00;99.90
31837;DHT22;18401;49.344;6.240;2024-03-02T14:15:41;13.10;97.60
31837;DHT22;18401;49.344;6.240;2024-03-02T14:18:07;13.00;56.30
31837;DHT22;18401;49.344;6.240;2024-03-02T14:20:37;13.20;82.50
31837;DHT22;18401;49.344;6.240;2024-03-02T14:23:03;13.30;63.90
31837;DHT22;18401;49.344;6.240;2024-03-02T14:25:29;13.30;65.20
31837;DHT22;18401;49.344;6.240;2024-03-02T14:27:58;13.40;99.90
31837;DHT22;18401;49.344;6.240;2024-03-02T14:30:24;13.10;60.80
31837;DHT22;18401;49.344;6.240;2024-03-02T14:32:50;13.60;91.70
31837;DHT22;18401;49.344;6.240;2024-03-02T14:35:16;14.10;94.90
31837;DHT22;18401;49.344;6.240;2024-03-02T14:37:42;14.20;75.50
31837;DHT22;18401;49.344;6.240;2024-03-02T14:40:08;14.40;32.80
31837;DHT22;18401;49.344;6.240;2024-03-02T14:42:35;14.00;55.40
31837;DHT22;18401;49.344;6.240;2024-03-02T14:45:01;14.30;90.50
31837;DHT22;18401;49.344;6.240;2024-03-02T14:47:29;15.00;35.20
31837;DHT22;18401;49.344;6.240;2024-03-02T14:49:55;14.50;12.70
31837;DHT22;18401;49.344;6.240;2024-03-02T14:52:21;13.50;99.90
31837;DHT22;18401;49.344;6.240;2024-03-02T14:54:46;13.30;99.90
31837;DHT22;18401;49.344;6.240;2024-03-02T14:57:12;13.10;99.90
31837;DHT22;18401;49.344;6.240;2024-03-02T14:59:38;13.10;99.90
31837;DHT22;18401;49.344;6.240;2024-03-02T15:02:05;12.90;99.90
31837;DHT22;18401;49.344;6.240;2024-03-02T15:04:31;12.90;99.90
31837;DHT22;18401;49.344;6.240;2024-03-02T15:06:56;12.80;99.90
31837;DHT22;18401;49.344;6.240;2024-03-02T15:09:22;12.80;99.90
31837;DHT22;18401;49.344;6.240;2024-03-02T15:11:48;12.80;99.90
31837;DHT22;18401;49.344;6.240;2024-03-02T15:14:13;12.60;99.90
31837;DHT22;18401;49.344;6.240;2024-03-02T15:16:39;12.50;99.90
31837;DHT22;18401;49.344;6.240;2024-03-02T15:19:05;12.40;99.90
31837;DHT22;18401;49.344;6.240;2024-03-02T15:21:31;12.20;99.90
31837;DHT22;18401;49.344;6.240;2024-03-02T15:23:57;11.90;99.90
31837;DHT22;18401;49.344;6.240;2024-03-02T15:26:22;11.70;1.00
31837;DHT22;18401;49.344;6.240;2024-03-02T15:28:48;11.50;89.30
31837;DHT22;18401;49.344;6.240;2024-03-02T15:31:14;11.40;99.90
31837;DHT22;18401;49.344;6.240;2024-03-02T15:33:39;11.30;99.90
31837;DHT22;18401;49.344;6.240;2024-03-02T15:36:05;11.10;99.90
31837;DHT22;18401;49.344;6.240;2024-03-02T15:38:31;11.10;99.90
31837;DHT22;18401;49.344;6.240;2024-03-02T15:40:58;11.10;99.90
31837;DHT22;18401;49.344;6.240;2024-03-02T15:43:23;11.20;99.90
31837;DHT22;18401;49.344;6.240;2024-03-02T15:45:49;11.00;99.90
31837;DHT22;18401;49.344;6.240;2024-03-02T15:48:15;10.90;99.90